Home > Products > Valid Products > MTR

000
SAUS44 KMRX 021859
MTRGDP
METAR KGDP 021851Z AUTO 09008G19KT 10SM CLR 30/10 A3022 RMK AO2
SLP139 T03000100





000
SAUS44 KMRX 021759
MTRGDP
METAR KGDP 021751Z AUTO 09010KT 9SM CLR 30/10 A3023 RMK AO2 SLP142
T03000100 10311 20228 58001





000
SAUS44 KMRX 021759
MTRGDP
METAR KGDP 021751Z AUTO 09010KT 9SM CLR 30/10 A3023 RMK AO2 SLP142
T03000100 10311 20228 58001





000
SAUS44 KMRX 021659
MTRGDP
METAR KGDP 021651Z AUTO VRB03KT 10SM CLR 31/11 A3024 RMK AO2 SLP142
T03060111





000
SAUS44 KMRX 021659
MTRGDP
METAR KGDP 021651Z AUTO VRB03KT 10SM CLR 31/11 A3024 RMK AO2 SLP142
T03060111





000
SAUS44 KMRX 021559
MTRGDP
METAR KGDP 021551Z AUTO VRB05KT 10SM CLR 27/09 A3024 RMK AO2 SLP148
T02720094





000
SAUS44 KMRX 020558 COR
MTRGDP
METAR KGDP 020551Z AUTO 05026KT 10SM -RA SCT110 23/09 A3020 RMK AO2
PK WND 05033/0526 RAB22 SLP135 P0000 60000 T02280094 10300 20228
51004





000
SAUS44 KMRX 020558 COR
MTRGDP
METAR KGDP 020551Z AUTO 05026KT 10SM -RA SCT110 23/09 A3020 RMK AO2
PK WND 05033/0526 RAB22 SLP135 P0000 60000 T02280094 10300 20228
51004





    US Dept of Commerce
    National Oceanic and Atmospheric Administration
    National Weather Service
    1325 East West Highway
    Silver Spring, MD 20910
    Page Author: NWS Internet Services Team
Disclaimer
Information Quality
Credits
Glossary
Privacy Policy
Freedom of Information Act (FOIA)
About Us
Career Opportunities